sensor_id;sensor_type;location;lat;lon;timestamp;P1;durP1;ratioP1;P2;durP2;ratioP2
72413;SDS011;60995;52.154;4.498;2023-08-24T00:00:22;12.27;;;4.78;;
72413;SDS011;60995;52.154;4.498;2023-08-24T00:02:39;12.00;;;5.70;;
72413;SDS011;60995;52.154;4.498;2023-08-24T00:04:55;11.82;;;5.60;;
72413;SDS011;60995;52.154;4.498;2023-08-24T00:07:12;11.77;;;6.28;;
72413;SDS011;60995;52.154;4.498;2023-08-24T00:09:28;12.05;;;6.45;;
72413;SDS011;60995;52.154;4.498;2023-08-24T00:11:44;11.82;;;6.65;;
72413;SDS011;60995;52.154;4.498;2023-08-24T00:14:01;11.82;;;6.85;;
72413;SDS011;60995;52.154;4.498;2023-08-24T00:16:18;16.27;;;7.18;;
72413;SDS011;60995;52.154;4.498;2023-08-24T00:18:35;13.23;;;6.85;;
72413;SDS011;60995;52.154;4.498;2023-08-24T00:20:51;13.52;;;7.10;;
72413;SDS011;60995;52.154;4.498;2023-08-24T00:23:08;12.73;;;7.18;;
72413;SDS011;60995;52.154;4.498;2023-08-24T00:25:24;12.60;;;7.25;;
72413;SDS011;60995;52.154;4.498;2023-08-24T00:27:41;13.73;;;7.13;;
72413;SDS011;60995;52.154;4.498;2023-08-24T00:29:57;17.27;;;9.35;;
72413;SDS011;60995;52.154;4.498;2023-08-24T00:32:13;12.10;;;6.75;;
72413;SDS011;60995;52.154;4.498;2023-08-24T00:34:30;13.55;;;6.47;;
72413;SDS011;60995;52.154;4.498;2023-08-24T00:36:46;14.07;;;6.63;;
72413;SDS011;60995;52.154;4.498;2023-08-24T00:39:02;15.45;;;7.00;;
72413;SDS011;60995;52.154;4.498;2023-08-24T00:41:18;14.27;;;6.88;;
72413;SDS011;60995;52.154;4.498;2023-08-24T00:43:37;16.05;;;7.10;;
72413;SDS011;60995;52.154;4.498;2023-08-24T00:45:55;13.98;;;6.88;;
72413;SDS011;60995;52.154;4.498;2023-08-24T00:48:15;12.95;;;6.30;;
72413;SDS011;60995;52.154;4.498;2023-08-24T00:50:32;10.88;;;6.30;;
72413;SDS011;60995;52.154;4.498;2023-08-24T00:52:48;13.48;;;6.72;;
72413;SDS011;60995;52.154;4.498;2023-08-24T00:55:05;12.27;;;6.15;;
72413;SDS011;60995;52.154;4.498;2023-08-24T00:57:23;11.82;;;6.03;;
72413;SDS011;60995;52.154;4.498;2023-08-24T00:59:39;13.40;;;6.50;;
72413;SDS011;60995;52.154;4.498;2023-08-24T01:01:56;12.60;;;6.63;;
72413;SDS011;60995;52.154;4.498;2023-08-24T01:04:12;10.32;;;6.38;;
72413;SDS011;60995;52.154;4.498;2023-08-24T01:06:29;13.93;;;6.72;;
72413;SDS011;60995;52.154;4.498;2023-08-24T01:08:45;15.98;;;6.70;;
72413;SDS011;60995;52.154;4.498;2023-08-24T01:11:04;11.52;;;6.65;;
72413;SDS011;60995;52.154;4.498;2023-08-24T01:13:36;13.35;;;7.47;;
72413;SDS011;60995;52.154;4.498;2023-08-24T01:16:14;15.60;;;7.32;;
72413;SDS011;60995;52.154;4.498;2023-08-24T01:18:37;15.05;;;7.88;;
72413;SDS011;60995;52.154;4.498;2023-08-24T01:20:56;12.95;;;8.48;;
72413;SDS011;60995;52.154;4.498;2023-08-24T01:25:53;13.68;;;7.88;;
72413;SDS011;60995;52.154;4.498;2023-08-24T01:28:32;16.05;;;8.15;;
72413;SDS011;60995;52.154;4.498;2023-08-24T01:30:49;15.30;;;7.93;;
72413;SDS011;60995;52.154;4.498;2023-08-24T01:33:06;16.75;;;8.50;;
72413;SDS011;60995;52.154;4.498;2023-08-24T01:35:27;17.73;;;9.30;;
72413;SDS011;60995;52.154;4.498;2023-08-24T01:37:43;15.20;;;9.27;;
72413;SDS011;60995;52.154;4.498;2023-08-24T01:42:30;16.00;;;9.18;;
72413;SDS011;60995;52.154;4.498;2023-08-24T01:44:52;14.68;;;9.35;;
72413;SDS011;60995;52.154;4.498;2023-08-24T01:47:16;14.43;;;8.93;;
72413;SDS011;60995;52.154;4.498;2023-08-24T01:49:35;16.67;;;8.75;;
72413;SDS011;60995;52.154;4.498;2023-08-24T01:51:52;14.30;;;9.48;;
72413;SDS011;60995;52.154;4.498;2023-08-24T01:54:10;17.85;;;10.05;;
72413;SDS011;60995;52.154;4.498;2023-08-24T01:56:27;19.73;;;10.25;;
72413;SDS011;60995;52.154;4.498;2023-08-24T01:58:43;14.00;;;9.10;;
72413;SDS011;60995;52.154;4.498;2023-08-24T02:00:59;19.05;;;9.63;;
72413;SDS011;60995;52.154;4.498;2023-08-24T02:03:16;14.90;;;9.55;;
72413;SDS011;60995;52.154;4.498;2023-08-24T02:05:32;17.10;;;9.90;;
72413;SDS011;60995;52.154;4.498;2023-08-24T02:07:48;19.25;;;10.20;;
72413;SDS011;60995;52.154;4.498;2023-08-24T02:10:05;15.25;;;9.95;;
72413;SDS011;60995;52.154;4.498;2023-08-24T02:12:21;17.05;;;10.10;;
72413;SDS011;60995;52.154;4.498;2023-08-24T02:14:38;14.88;;;10.10;;
72413;SDS011;60995;52.154;4.498;2023-08-24T02:16:54;16.33;;;10.48;;
72413;SDS011;60995;52.154;4.498;2023-08-24T02:19:10;17.50;;;9.82;;
72413;SDS011;60995;52.154;4.498;2023-08-24T02:21:26;18.13;;;9.90;;
72413;SDS011;60995;52.154;4.498;2023-08-24T02:23:43;20.95;;;10.13;;
72413;SDS011;60995;52.154;4.498;2023-08-24T02:25:59;14.55;;;9.65;;
72413;SDS011;60995;52.154;4.498;2023-08-24T02:28:15;16.08;;;10.23;;
72413;SDS011;60995;52.154;4.498;2023-08-24T02:30:32;16.58;;;10.40;;
72413;SDS011;60995;52.154;4.498;2023-08-24T02:32:48;18.77;;;10.90;;
72413;SDS011;60995;52.154;4.498;2023-08-24T02:35:05;17.75;;;10.82;;
72413;SDS011;60995;52.154;4.498;2023-08-24T02:37:23;17.25;;;11.32;;
72413;SDS011;60995;52.154;4.498;2023-08-24T02:39:39;19.38;;;11.30;;
72413;SDS011;60995;52.154;4.498;2023-08-24T02:41:55;17.25;;;9.85;;
72413;SDS011;60995;52.154;4.498;2023-08-24T02:44:12;21.33;;;11.15;;
72413;SDS011;60995;52.154;4.498;2023-08-24T02:46:28;15.43;;;10.00;;
72413;SDS011;60995;52.154;4.498;2023-08-24T02:48:45;16.27;;;10.63;;
72413;SDS011;60995;52.154;4.498;2023-08-24T02:51:02;17.58;;;10.48;;
72413;SDS011;60995;52.154;4.498;2023-08-24T02:53:20;17.98;;;10.82;;
72413;SDS011;60995;52.154;4.498;2023-08-24T02:55:37;16.45;;;10.07;;
72413;SDS011;60995;52.154;4.498;2023-08-24T02:57:53;19.40;;;10.85;;
72413;SDS011;60995;52.154;4.498;2023-08-24T03:00:09;18.45;;;10.50;;
72413;SDS011;60995;52.154;4.498;2023-08-24T03:02:29;18.27;;;11.15;;
72413;SDS011;60995;52.154;4.498;2023-08-24T03:04:45;16.08;;;10.43;;
72413;SDS011;60995;52.154;4.498;2023-08-24T03:07:01;18.23;;;11.55;;
72413;SDS011;60995;52.154;4.498;2023-08-24T03:09:18;17.52;;;11.00;;
72413;SDS011;60995;52.154;4.498;2023-08-24T03:11:34;19.88;;;10.65;;
72413;SDS011;60995;52.154;4.498;2023-08-24T03:13:50;20.02;;;11.45;;
72413;SDS011;60995;52.154;4.498;2023-08-24T03:16:08;21.63;;;11.77;;
72413;SDS011;60995;52.154;4.498;2023-08-24T03:18:25;18.38;;;11.38;;
72413;SDS011;60995;52.154;4.498;2023-08-24T03:20:41;19.90;;;11.60;;
72413;SDS011;60995;52.154;4.498;2023-08-24T03:22:58;20.00;;;12.25;;
72413;SDS011;60995;52.154;4.498;2023-08-24T03:25:14;18.85;;;11.60;;
72413;SDS011;60995;52.154;4.498;2023-08-24T03:27:30;15.13;;;10.90;;
72413;SDS011;60995;52.154;4.498;2023-08-24T03:29:47;19.27;;;11.00;;
72413;SDS011;60995;52.154;4.498;2023-08-24T03:32:03;21.42;;;11.57;;
72413;SDS011;60995;52.154;4.498;2023-08-24T03:34:19;18.92;;;11.70;;
72413;SDS011;60995;52.154;4.498;2023-08-24T03:36:36;18.58;;;11.57;;
72413;SDS011;60995;52.154;4.498;2023-08-24T03:38:53;20.13;;;11.13;;
72413;SDS011;60995;52.154;4.498;2023-08-24T03:41:10;19.00;;;11.70;;
72413;SDS011;60995;52.154;4.498;2023-08-24T03:43:26;17.38;;;11.52;;
72413;SDS011;60995;52.154;4.498;2023-08-24T03:45:42;18.17;;;11.77;;
72413;SDS011;60995;52.154;4.498;2023-08-24T03:47:59;23.25;;;14.13;;
72413;SDS011;60995;52.154;4.498;2023-08-24T03:50:16;17.33;;;11.48;;
72413;SDS011;60995;52.154;4.498;2023-08-24T03:52:32;19.15;;;11.88;;
72413;SDS011;60995;52.154;4.498;2023-08-24T03:54:49;19.25;;;11.13;;
72413;SDS011;60995;52.154;4.498;2023-08-24T03:57:05;18.08;;;11.60;;
72413;SDS011;60995;52.154;4.498;2023-08-24T03:59:21;18.17;;;11.18;;
72413;SDS011;60995;52.154;4.498;2023-08-24T04:01:37;22.73;;;11.52;;
72413;SDS011;60995;52.154;4.498;2023-08-24T04:03:53;21.20;;;11.93;;
72413;SDS011;60995;52.154;4.498;2023-08-24T04:06:10;18.40;;;11.55;;
72413;SDS011;60995;52.154;4.498;2023-08-24T04:08:26;23.10;;;11.85;;
72413;SDS011;60995;52.154;4.498;2023-08-24T04:10:42;20.27;;;12.05;;
72413;SDS011;60995;52.154;4.498;2023-08-24T04:12:59;19.73;;;11.73;;
72413;SDS011;60995;52.154;4.498;2023-08-24T04:15:15;19.13;;;12.02;;
72413;SDS011;60995;52.154;4.498;2023-08-24T04:17:31;19.88;;;11.93;;
72413;SDS011;60995;52.154;4.498;2023-08-24T04:19:48;20.92;;;12.48;;
72413;SDS011;60995;52.154;4.498;2023-08-24T04:22:04;17.38;;;11.85;;
72413;SDS011;60995;52.154;4.498;2023-08-24T04:24:21;19.75;;;12.38;;
72413;SDS011;60995;52.154;4.498;2023-08-24T04:26:37;18.58;;;12.40;;
72413;SDS011;60995;52.154;4.498;2023-08-24T04:28:53;18.30;;;12.18;;
72413;SDS011;60995;52.154;4.498;2023-08-24T04:31:09;20.67;;;11.85;;
72413;SDS011;60995;52.154;4.498;2023-08-24T04:33:26;19.52;;;12.07;;
72413;SDS011;60995;52.154;4.498;2023-08-24T04:35:42;21.08;;;12.07;;
72413;SDS011;60995;52.154;4.498;2023-08-24T04:38:02;19.45;;;12.43;;
72413;SDS011;60995;52.154;4.498;2023-08-24T04:40:19;23.23;;;11.75;;
72413;SDS011;60995;52.154;4.498;2023-08-24T04:42:35;20.20;;;12.48;;
72413;SDS011;60995;52.154;4.498;2023-08-24T04:44:51;18.15;;;12.57;;
72413;SDS011;60995;52.154;4.498;2023-08-24T04:47:07;18.10;;;11.98;;
72413;SDS011;60995;52.154;4.498;2023-08-24T04:49:24;22.70;;;12.50;;
72413;SDS011;60995;52.154;4.498;2023-08-24T04:51:40;20.90;;;12.50;;
72413;SDS011;60995;52.154;4.498;2023-08-24T04:53:56;26.15;;;12.95;;
72413;SDS011;60995;52.154;4.498;2023-08-24T04:56:13;19.00;;;12.80;;
72413;SDS011;60995;52.154;4.498;2023-08-24T04:58:32;23.33;;;12.43;;
72413;SDS011;60995;52.154;4.498;2023-08-24T05:00:51;20.05;;;12.70;;
72413;SDS011;60995;52.154;4.498;2023-08-24T05:03:08;21.85;;;12.68;;
72413;SDS011;60995;52.154;4.498;2023-08-24T05:05:25;18.58;;;11.90;;
72413;SDS011;60995;52.154;4.498;2023-08-24T05:07:41;20.98;;;12.82;;
72413;SDS011;60995;52.154;4.498;2023-08-24T05:09:58;19.50;;;12.55;;
72413;SDS011;60995;52.154;4.498;2023-08-24T05:12:14;22.73;;;12.57;;
72413;SDS011;60995;52.154;4.498;2023-08-24T05:14:31;17.83;;;11.43;;
72413;SDS011;60995;52.154;4.498;2023-08-24T05:16:48;19.60;;;11.80;;
72413;SDS011;60995;52.154;4.498;2023-08-24T05:19:05;20.08;;;11.68;;
72413;SDS011;60995;52.154;4.498;2023-08-24T05:21:21;20.80;;;11.68;;
72413;SDS011;60995;52.154;4.498;2023-08-24T05:23:38;20.95;;;11.43;;
72413;SDS011;60995;52.154;4.498;2023-08-24T05:25:56;20.20;;;11.60;;
72413;SDS011;60995;52.154;4.498;2023-08-24T05:28:13;18.63;;;12.50;;
72413;SDS011;60995;52.154;4.498;2023-08-24T05:30:29;20.58;;;12.45;;
72413;SDS011;60995;52.154;4.498;2023-08-24T05:32:46;22.60;;;11.95;;
72413;SDS011;60995;52.154;4.498;2023-08-24T05:35:02;19.75;;;12.38;;
72413;SDS011;60995;52.154;4.498;2023-08-24T05:37:19;21.65;;;11.93;;
72413;SDS011;60995;52.154;4.498;2023-08-24T05:39:35;20.42;;;12.88;;
72413;SDS011;60995;52.154;4.498;2023-08-24T05:41:52;22.65;;;13.77;;
72413;SDS011;60995;52.154;4.498;2023-08-24T05:44:09;17.90;;;12.10;;
72413;SDS011;60995;52.154;4.498;2023-08-24T05:46:25;21.13;;;13.40;;
72413;SDS011;60995;52.154;4.498;2023-08-24T05:48:41;21.33;;;13.38;;
72413;SDS011;60995;52.154;4.498;2023-08-24T05:50:58;21.45;;;12.02;;
72413;SDS011;60995;52.154;4.498;2023-08-24T05:53:14;17.27;;;11.82;;
72413;SDS011;60995;52.154;4.498;2023-08-24T05:55:30;21.25;;;13.00;;
72413;SDS011;60995;52.154;4.498;2023-08-24T05:57:46;22.38;;;12.85;;
72413;SDS011;60995;52.154;4.498;2023-08-24T06:00:04;19.90;;;12.43;;
72413;SDS011;60995;52.154;4.498;2023-08-24T06:02:25;23.10;;;13.23;;
72413;SDS011;60995;52.154;4.498;2023-08-24T06:04:41;18.73;;;11.77;;
72413;SDS011;60995;52.154;4.498;2023-08-24T06:06:58;19.50;;;11.82;;
72413;SDS011;60995;52.154;4.498;2023-08-24T06:09:14;21.88;;;10.65;;
72413;SDS011;60995;52.154;4.498;2023-08-24T06:11:33;14.55;;;10.55;;
72413;SDS011;60995;52.154;4.498;2023-08-24T06:13:49;17.52;;;9.90;;
72413;SDS011;60995;52.154;4.498;2023-08-24T06:16:07;14.93;;;9.45;;
72413;SDS011;60995;52.154;4.498;2023-08-24T06:18:24;16.92;;;9.32;;
72413;SDS011;60995;52.154;4.498;2023-08-24T06:20:40;15.68;;;8.90;;
72413;SDS011;60995;52.154;4.498;2023-08-24T06:22:56;14.73;;;7.88;;
72413;SDS011;60995;52.154;4.498;2023-08-24T06:25:13;15.05;;;8.77;;
72413;SDS011;60995;52.154;4.498;2023-08-24T06:27:29;14.77;;;8.95;;
72413;SDS011;60995;52.154;4.498;2023-08-24T06:29:45;17.95;;;9.30;;
72413;SDS011;60995;52.154;4.498;2023-08-24T06:32:01;13.63;;;8.13;;
72413;SDS011;60995;52.154;4.498;2023-08-24T06:34:18;15.70;;;9.10;;
72413;SDS011;60995;52.154;4.498;2023-08-24T06:36:34;14.32;;;8.20;;
72413;SDS011;60995;52.154;4.498;2023-08-24T06:38:51;15.30;;;8.05;;
72413;SDS011;60995;52.154;4.498;2023-08-24T06:41:07;14.50;;;8.25;;
72413;SDS011;60995;52.154;4.498;2023-08-24T06:43:27;15.07;;;8.90;;
72413;SDS011;60995;52.154;4.498;2023-08-24T06:45:44;14.73;;;8.10;;
72413;SDS011;60995;52.154;4.498;2023-08-24T06:48:00;17.00;;;7.60;;
72413;SDS011;60995;52.154;4.498;2023-08-24T06:50:17;12.70;;;7.30;;
72413;SDS011;60995;52.154;4.498;2023-08-24T06:52:34;17.17;;;8.30;;
72413;SDS011;60995;52.154;4.498;2023-08-24T06:54:51;13.07;;;8.35;;
72413;SDS011;60995;52.154;4.498;2023-08-24T06:57:09;16.08;;;7.90;;
72413;SDS011;60995;52.154;4.498;2023-08-24T06:59:25;16.58;;;8.13;;
72413;SDS011;60995;52.154;4.498;2023-08-24T07:01:41;14.85;;;7.78;;
72413;SDS011;60995;52.154;4.498;2023-08-24T07:03:58;15.10;;;8.98;;
72413;SDS011;60995;52.154;4.498;2023-08-24T07:06:14;13.80;;;8.38;;
72413;SDS011;60995;52.154;4.498;2023-08-24T07:08:30;18.25;;;9.30;;
72413;SDS011;60995;52.154;4.498;2023-08-24T07:10:47;15.82;;;8.27;;
72413;SDS011;60995;52.154;4.498;2023-08-24T07:13:04;14.23;;;9.02;;
72413;SDS011;60995;52.154;4.498;2023-08-24T07:15:23;16.75;;;9.07;;
72413;SDS011;60995;52.154;4.498;2023-08-24T07:17:40;15.95;;;8.05;;
72413;SDS011;60995;52.154;4.498;2023-08-24T07:19:56;16.13;;;7.95;;
72413;SDS011;60995;52.154;4.498;2023-08-24T07:22:13;16.40;;;8.55;;
72413;SDS011;60995;52.154;4.498;2023-08-24T07:24:29;15.57;;;8.80;;
72413;SDS011;60995;52.154;4.498;2023-08-24T07:26:46;15.25;;;9.52;;
72413;SDS011;60995;52.154;4.498;2023-08-24T07:29:02;16.25;;;10.07;;
72413;SDS011;60995;52.154;4.498;2023-08-24T07:31:19;17.45;;;10.52;;
72413;SDS011;60995;52.154;4.498;2023-08-24T07:33:35;16.92;;;10.65;;
72413;SDS011;60995;52.154;4.498;2023-08-24T07:35:52;16.70;;;10.00;;
72413;SDS011;60995;52.154;4.498;2023-08-24T07:38:08;17.02;;;10.75;;
72413;SDS011;60995;52.154;4.498;2023-08-24T07:40:24;17.63;;;11.23;;
72413;SDS011;60995;52.154;4.498;2023-08-24T07:42:48;16.08;;;10.13;;
72413;SDS011;60995;52.154;4.498;2023-08-24T07:45:09;21.80;;;11.45;;
72413;SDS011;60995;52.154;4.498;2023-08-24T07:47:25;19.58;;;12.13;;
72413;SDS011;60995;52.154;4.498;2023-08-24T07:49:41;27.13;;;15.23;;
72413;SDS011;60995;52.154;4.498;2023-08-24T07:52:00;21.83;;;12.30;;
72413;SDS011;60995;52.154;4.498;2023-08-24T07:54:16;19.80;;;12.45;;
72413;SDS011;60995;52.154;4.498;2023-08-24T07:56:32;25.13;;;13.60;;
72413;SDS011;60995;52.154;4.498;2023-08-24T07:58:49;17.30;;;11.82;;
72413;SDS011;60995;52.154;4.498;2023-08-24T08:01:05;31.85;;;17.45;;
72413;SDS011;60995;52.154;4.498;2023-08-24T08:03:22;17.40;;;12.02;;
72413;SDS011;60995;52.154;4.498;2023-08-24T08:05:38;23.88;;;12.85;;
72413;SDS011;60995;52.154;4.498;2023-08-24T08:07:54;19.05;;;12.07;;
72413;SDS011;60995;52.154;4.498;2023-08-24T08:10:11;17.23;;;12.40;;
72413;SDS011;60995;52.154;4.498;2023-08-24T08:12:27;20.40;;;12.88;;
72413;SDS011;60995;52.154;4.498;2023-08-24T08:14:43;20.52;;;12.73;;
72413;SDS011;60995;52.154;4.498;2023-08-24T08:17:00;21.55;;;12.43;;
72413;SDS011;60995;52.154;4.498;2023-08-24T08:19:16;20.83;;;13.38;;
72413;SDS011;60995;52.154;4.498;2023-08-24T08:21:35;19.15;;;12.30;;
72413;SDS011;60995;52.154;4.498;2023-08-24T08:23:51;23.75;;;12.98;;
72413;SDS011;60995;52.154;4.498;2023-08-24T08:26:09;21.17;;;12.05;;
72413;SDS011;60995;52.154;4.498;2023-08-24T08:28:26;16.60;;;11.35;;
72413;SDS011;60995;52.154;4.498;2023-08-24T08:30:43;18.45;;;11.68;;
72413;SDS011;60995;52.154;4.498;2023-08-24T08:33:04;18.63;;;11.57;;
72413;SDS011;60995;52.154;4.498;2023-08-24T08:35:22;19.55;;;11.45;;
72413;SDS011;60995;52.154;4.498;2023-08-24T08:37:38;20.45;;;11.52;;
72413;SDS011;60995;52.154;4.498;2023-08-24T08:39:55;17.15;;;11.38;;
72413;SDS011;60995;52.154;4.498;2023-08-24T08:42:11;18.52;;;12.07;;
72413;SDS011;60995;52.154;4.498;2023-08-24T08:44:30;15.90;;;11.63;;
72413;SDS011;60995;52.154;4.498;2023-08-24T08:46:48;19.67;;;12.07;;
72413;SDS011;60995;52.154;4.498;2023-08-24T08:49:06;20.35;;;11.57;;
72413;SDS011;60995;52.154;4.498;2023-08-24T08:51:23;18.40;;;11.80;;
72413;SDS011;60995;52.154;4.498;2023-08-24T08:53:40;17.90;;;11.18;;
72413;SDS011;60995;52.154;4.498;2023-08-24T08:55:56;18.60;;;12.05;;
72413;SDS011;60995;52.154;4.498;2023-08-24T08:58:19;17.00;;;11.60;;
72413;SDS011;60995;52.154;4.498;2023-08-24T09:00:37;19.05;;;11.27;;
72413;SDS011;60995;52.154;4.498;2023-08-24T09:02:54;21.75;;;12.07;;
72413;SDS011;60995;52.154;4.498;2023-08-24T09:05:14;17.52;;;10.60;;
72413;SDS011;60995;52.154;4.498;2023-08-24T09:07:30;20.52;;;11.55;;
72413;SDS011;60995;52.154;4.498;2023-08-24T09:09:50;19.90;;;11.68;;
72413;SDS011;60995;52.154;4.498;2023-08-24T09:12:07;24.05;;;12.43;;
72413;SDS011;60995;52.154;4.498;2023-08-24T09:14:23;19.35;;;11.85;;
72413;SDS011;60995;52.154;4.498;2023-08-24T09:16:40;21.10;;;12.32;;
72413;SDS011;60995;52.154;4.498;2023-08-24T09:18:58;18.67;;;11.82;;
72413;SDS011;60995;52.154;4.498;2023-08-24T09:21:15;19.30;;;11.60;;
72413;SDS011;60995;52.154;4.498;2023-08-24T09:23:31;21.15;;;11.85;;
72413;SDS011;60995;52.154;4.498;2023-08-24T09:25:48;18.58;;;11.30;;
72413;SDS011;60995;52.154;4.498;2023-08-24T09:28:04;20.30;;;12.18;;
72413;SDS011;60995;52.154;4.498;2023-08-24T09:30:21;20.75;;;12.90;;
72413;SDS011;60995;52.154;4.498;2023-08-24T09:32:37;17.95;;;11.90;;
72413;SDS011;60995;52.154;4.498;2023-08-24T09:34:53;20.90;;;12.35;;
72413;SDS011;60995;52.154;4.498;2023-08-24T09:37:14;20.90;;;12.70;;
72413;SDS011;60995;52.154;4.498;2023-08-24T09:39:31;19.10;;;12.63;;
72413;SDS011;60995;52.154;4.498;2023-08-24T09:41:49;19.58;;;12.32;;
72413;SDS011;60995;52.154;4.498;2023-08-24T09:44:07;21.27;;;12.82;;
72413;SDS011;60995;52.154;4.498;2023-08-24T09:46:27;19.23;;;12.65;;
72413;SDS011;60995;52.154;4.498;2023-08-24T09:48:44;24.23;;;13.70;;
72413;SDS011;60995;52.154;4.498;2023-08-24T09:51:00;17.88;;;12.00;;
72413;SDS011;60995;52.154;4.498;2023-08-24T09:53:24;19.95;;;11.73;;
72413;SDS011;60995;52.154;4.498;2023-08-24T09:55:42;21.77;;;12.55;;
72413;SDS011;60995;52.154;4.498;2023-08-24T09:58:11;21.00;;;14.07;;
72413;SDS011;60995;52.154;4.498;2023-08-24T10:00:27;23.77;;;14.25;;
72413;SDS011;60995;52.154;4.498;2023-08-24T10:02:53;23.10;;;13.40;;
72413;SDS011;60995;52.154;4.498;2023-08-24T10:05:09;23.55;;;14.95;;
72413;SDS011;60995;52.154;4.498;2023-08-24T10:07:27;21.67;;;14.25;;
72413;SDS011;60995;52.154;4.498;2023-08-24T10:09:45;25.25;;;14.52;;
72413;SDS011;60995;52.154;4.498;2023-08-24T10:12:20;21.55;;;14.88;;
72413;SDS011;60995;52.154;4.498;2023-08-24T10:15:03;22.05;;;13.95;;
72413;SDS011;60995;52.154;4.498;2023-08-24T10:17:22;20.05;;;14.27;;
72413;SDS011;60995;52.154;4.498;2023-08-24T10:19:40;21.75;;;13.95;;
72413;SDS011;60995;52.154;4.498;2023-08-24T10:21:58;21.23;;;14.88;;
72413;SDS011;60995;52.154;4.498;2023-08-24T10:24:16;23.13;;;14.82;;
72413;SDS011;60995;52.154;4.498;2023-08-24T10:26:32;24.27;;;15.48;;
72413;SDS011;60995;52.154;4.498;2023-08-24T10:28:50;19.23;;;14.60;;
72413;SDS011;60995;52.154;4.498;2023-08-24T10:31:07;21.88;;;15.55;;
72413;SDS011;60995;52.154;4.498;2023-08-24T10:33:24;19.08;;;14.27;;
72413;SDS011;60995;52.154;4.498;2023-08-24T10:35:43;22.40;;;15.85;;
72413;SDS011;60995;52.154;4.498;2023-08-24T10:38:02;25.23;;;14.32;;
72413;SDS011;60995;52.154;4.498;2023-08-24T10:40:31;23.23;;;13.68;;
72413;SDS011;60995;52.154;4.498;2023-08-24T10:42:49;19.50;;;12.02;;
72413;SDS011;60995;52.154;4.498;2023-08-24T10:45:06;22.63;;;10.55;;
72413;SDS011;60995;52.154;4.498;2023-08-24T10:47:23;18.65;;;11.85;;
72413;SDS011;60995;52.154;4.498;2023-08-24T10:49:43;17.95;;;11.73;;
72413;SDS011;60995;52.154;4.498;2023-08-24T10:52:21;17.67;;;11.45;;
72413;SDS011;60995;52.154;4.498;2023-08-24T10:54:47;17.80;;;10.57;;
72413;SDS011;60995;52.154;4.498;2023-08-24T10:57:05;17.83;;;9.73;;
72413;SDS011;60995;52.154;4.498;2023-08-24T10:59:21;15.40;;;9.60;;
72413;SDS011;60995;52.154;4.498;2023-08-24T11:01:38;18.67;;;9.15;;
72413;SDS011;60995;52.154;4.498;2023-08-24T11:03:56;17.92;;;8.20;;
72413;SDS011;60995;52.154;4.498;2023-08-24T11:06:22;16.85;;;8.32;;
72413;SDS011;60995;52.154;4.498;2023-08-24T11:08:44;17.65;;;7.80;;
72413;SDS011;60995;52.154;4.498;2023-08-24T11:11:02;16.08;;;8.70;;
72413;SDS011;60995;52.154;4.498;2023-08-24T11:13:18;22.45;;;9.80;;
72413;SDS011;60995;52.154;4.498;2023-08-24T11:15:47;21.10;;;10.50;;
72413;SDS011;60995;52.154;4.498;2023-08-24T11:20:47;17.77;;;10.98;;
72413;SDS011;60995;52.154;4.498;2023-08-24T11:23:06;24.85;;;12.43;;
72413;SDS011;60995;52.154;4.498;2023-08-24T11:25:25;23.23;;;11.77;;
72413;SDS011;60995;52.154;4.498;2023-08-24T11:27:42;23.67;;;12.15;;
72413;SDS011;60995;52.154;4.498;2023-08-24T11:30:01;18.50;;;11.60;;
72413;SDS011;60995;52.154;4.498;2023-08-24T11:32:21;24.08;;;11.48;;
72413;SDS011;60995;52.154;4.498;2023-08-24T11:34:37;23.90;;;13.23;;
72413;SDS011;60995;52.154;4.498;2023-08-24T11:36:54;23.83;;;13.82;;
72413;SDS011;60995;52.154;4.498;2023-08-24T11:39:14;22.75;;;13.88;;
72413;SDS011;60995;52.154;4.498;2023-08-24T11:41:36;21.25;;;12.77;;
72413;SDS011;60995;52.154;4.498;2023-08-24T11:43:59;21.33;;;14.05;;
72413;SDS011;60995;52.154;4.498;2023-08-24T11:46:19;20.95;;;12.43;;
72413;SDS011;60995;52.154;4.498;2023-08-24T11:48:35;19.70;;;13.77;;
72413;SDS011;60995;52.154;4.498;2023-08-24T11:50:55;21.75;;;14.55;;
72413;SDS011;60995;52.154;4.498;2023-08-24T11:53:13;22.67;;;12.90;;
72413;SDS011;60995;52.154;4.498;2023-08-24T11:55:30;22.60;;;12.38;;
72413;SDS011;60995;52.154;4.498;2023-08-24T11:57:46;17.50;;;13.27;;
72413;SDS011;60995;52.154;4.498;2023-08-24T12:00:04;23.00;;;13.48;;
72413;SDS011;60995;52.154;4.498;2023-08-24T12:02:22;23.85;;;14.43;;
72413;SDS011;60995;52.154;4.498;2023-08-24T12:04:41;21.75;;;13.50;;
72413;SDS011;60995;52.154;4.498;2023-08-24T12:06:58;20.67;;;13.60;;
72413;SDS011;60995;52.154;4.498;2023-08-24T12:09:14;19.58;;;14.82;;
72413;SDS011;60995;52.154;4.498;2023-08-24T12:11:34;21.35;;;14.10;;
72413;SDS011;60995;52.154;4.498;2023-08-24T12:13:53;22.77;;;14.55;;
72413;SDS011;60995;52.154;4.498;2023-08-24T12:16:12;21.30;;;14.05;;
72413;SDS011;60995;52.154;4.498;2023-08-24T12:18:29;21.38;;;13.35;;
72413;SDS011;60995;52.154;4.498;2023-08-24T12:20:47;22.63;;;12.50;;
72413;SDS011;60995;52.154;4.498;2023-08-24T12:23:05;26.27;;;13.68;;
72413;SDS011;60995;52.154;4.498;2023-08-24T12:25:23;20.58;;;12.25;;
72413;SDS011;60995;52.154;4.498;2023-08-24T12:27:41;20.98;;;13.73;;
72413;SDS011;60995;52.154;4.498;2023-08-24T12:30:01;18.88;;;14.00;;
72413;SDS011;60995;52.154;4.498;2023-08-24T12:32:18;19.63;;;13.07;;
72413;SDS011;60995;52.154;4.498;2023-08-24T12:34:40;17.85;;;12.10;;
72413;SDS011;60995;52.154;4.498;2023-08-24T12:36:58;21.35;;;11.63;;
72413;SDS011;60995;52.154;4.498;2023-08-24T12:39:14;19.35;;;12.10;;
72413;SDS011;60995;52.154;4.498;2023-08-24T12:41:31;21.45;;;13.75;;
72413;SDS011;60995;52.154;4.498;2023-08-24T12:43:48;22.38;;;13.05;;
72413;SDS011;60995;52.154;4.498;2023-08-24T12:46:04;22.50;;;14.18;;
72413;SDS011;60995;52.154;4.498;2023-08-24T12:48:20;22.60;;;14.63;;
72413;SDS011;60995;52.154;4.498;2023-08-24T12:50:37;19.92;;;13.93;;
72413;SDS011;60995;52.154;4.498;2023-08-24T12:52:54;20.10;;;13.95;;
72413;SDS011;60995;52.154;4.498;2023-08-24T12:55:15;21.55;;;14.70;;
72413;SDS011;60995;52.154;4.498;2023-08-24T12:57:32;21.05;;;15.27;;
72413;SDS011;60995;52.154;4.498;2023-08-24T12:59:48;21.73;;;15.07;;
72413;SDS011;60995;52.154;4.498;2023-08-24T13:02:05;22.35;;;15.63;;
72413;SDS011;60995;52.154;4.498;2023-08-24T13:04:21;19.65;;;14.30;;
72413;SDS011;60995;52.154;4.498;2023-08-24T13:06:39;24.25;;;14.55;;
72413;SDS011;60995;52.154;4.498;2023-08-24T13:08:55;20.52;;;12.95;;
72413;SDS011;60995;52.154;4.498;2023-08-24T13:11:11;19.38;;;14.20;;
72413;SDS011;60995;52.154;4.498;2023-08-24T13:13:28;18.67;;;13.23;;
72413;SDS011;60995;52.154;4.498;2023-08-24T13:15:44;21.15;;;13.45;;
72413;SDS011;60995;52.154;4.498;2023-08-24T13:18:01;18.40;;;12.77;;
72413;SDS011;60995;52.154;4.498;2023-08-24T13:20:17;19.52;;;12.63;;
72413;SDS011;60995;52.154;4.498;2023-08-24T13:22:33;20.85;;;14.07;;
72413;SDS011;60995;52.154;4.498;2023-08-24T13:24:51;20.27;;;13.32;;
72413;SDS011;60995;52.154;4.498;2023-08-24T13:27:07;20.88;;;13.43;;
72413;SDS011;60995;52.154;4.498;2023-08-24T13:29:26;19.75;;;13.77;;
72413;SDS011;60995;52.154;4.498;2023-08-24T13:31:42;22.02;;;14.93;;
72413;SDS011;60995;52.154;4.498;2023-08-24T13:33:58;19.85;;;14.30;;
72413;SDS011;60995;52.154;4.498;2023-08-24T13:36:15;24.33;;;16.77;;